createdAt,value
2019-04-29T00:00:50.578Z,90.70
2019-04-29T00:03:19.053Z,90.70
2019-04-29T00:05:47.594Z,90.70
2019-04-29T00:08:16.015Z,90.60
2019-04-29T00:10:44.778Z,90.60
2019-04-29T00:13:13.567Z,90.80
2019-04-29T00:15:43.626Z,90.70
2019-04-29T00:18:13.674Z,90.80
2019-04-29T00:20:43.723Z,90.80
2019-04-29T00:25:52.926Z,90.70
2019-04-29T00:28:21.324Z,90.80
2019-04-29T00:30:49.738Z,90.70
2019-04-29T00:33:18.314Z,90.60
2019-04-29T00:35:46.714Z,90.50
2019-04-29T00:38:16.755Z,90.60
2019-04-29T00:40:46.786Z,90.60
2019-04-29T00:43:16.829Z,90.40
2019-04-29T00:45:45.367Z,90.30
2019-04-29T00:48:13.872Z,90.50
2019-04-29T00:50:42.295Z,90.70
2019-04-29T00:53:10.678Z,90.40
2019-04-29T00:55:39.141Z,90.50
2019-04-29T00:58:07.538Z,90.30
2019-04-29T01:00:37.683Z,90.20
2019-04-29T01:03:06.165Z,90.60
2019-04-29T01:05:34.962Z,90.60
2019-04-29T01:08:05.525Z,90.60
2019-04-29T01:10:33.940Z,90.60
2019-04-29T01:13:02.378Z,90.70
2019-04-29T01:15:30.777Z,91.10
2019-04-29T01:17:59.184Z,90.70
2019-04-29T01:20:27.590Z,90.70
2019-04-29T01:22:56.022Z,90.70
2019-04-29T01:25:24.426Z,90.70
2019-04-29T01:27:54.482Z,90.70
2019-04-29T01:30:25.978Z,90.80
2019-04-29T01:32:54.371Z,90.80
2019-04-29T01:35:22.768Z,91.20
2019-04-29T01:37:51.184Z,91.00
2019-04-29T01:40:21.226Z,91.10
2019-04-29T01:42:49.649Z,91.20
2019-04-29T01:45:18.138Z,91.30
2019-04-29T01:47:46.614Z,91.10
2019-04-29T01:50:15.014Z,91.00
2019-04-29T01:52:43.450Z,90.90
2019-04-29T01:55:11.939Z,90.80
2019-04-29T01:57:40.370Z,90.90
2019-04-29T02:00:12.365Z,91.10
2019-04-29T02:02:41.135Z,91.10
2019-04-29T02:05:09.695Z,91.20
2019-04-29T02:07:38.078Z,91.30
2019-04-29T02:10:08.288Z,91.40
2019-04-29T02:12:36.750Z,91.30
2019-04-29T02:15:06.986Z,91.20
2019-04-29T02:17:35.513Z,91.20
2019-04-29T02:20:06.319Z,91.40
2019-04-29T02:22:36.455Z,91.40
2019-04-29T02:25:07.554Z,91.50
2019-04-29T02:27:36.078Z,91.40
2019-04-29T02:30:06.538Z,91.40
2019-04-29T02:32:34.927Z,91.50
2019-04-29T02:35:03.436Z,91.50
2019-04-29T02:37:33.507Z,91.60
2019-04-29T02:40:03.541Z,91.70
2019-04-29T02:42:34.617Z,91.90
2019-04-29T02:45:05.050Z,91.80
2019-04-29T02:47:33.478Z,91.90
2019-04-29T02:50:01.907Z,92.00
2019-04-29T02:52:30.294Z,92.30
2019-04-29T02:55:00.363Z,92.50
2019-04-29T02:57:30.450Z,92.30
2019-04-29T03:00:00.618Z,92.30
2019-04-29T03:02:30.688Z,92.40
2019-04-29T03:05:00.719Z,92.50
2019-04-29T03:07:29.142Z,92.60
2019-04-29T03:09:57.584Z,92.70
2019-04-29T03:12:26.034Z,92.80
2019-04-29T03:14:54.602Z,92.80
2019-04-29T03:17:23.067Z,92.70
2019-04-29T03:19:53.187Z,92.60
2019-04-29T03:22:21.661Z,92.50
2019-04-29T03:24:50.059Z,92.60
2019-04-29T03:27:18.474Z,92.60
2019-04-29T03:29:46.967Z,92.60
2019-04-29T03:32:15.378Z,92.80
2019-04-29T03:34:43.795Z,92.60
2019-04-29T03:37:15.012Z,92.40
2019-04-29T03:39:43.407Z,92.30
2019-04-29T03:42:11.807Z,92.40
2019-04-29T03:44:40.292Z,92.40
2019-04-29T03:47:08.729Z,92.60
2019-04-29T03:49:37.195Z,92.50
2019-04-29T03:52:05.615Z,92.60
2019-04-29T03:54:34.038Z,92.60
2019-04-29T03:57:16.078Z,92.60
2019-04-29T03:59:44.481Z,92.60
2019-04-29T04:02:14.523Z,92.70
2019-04-29T04:04:44.606Z,92.60
2019-04-29T04:07:14.647Z,92.60
2019-04-29T04:09:43.062Z,92.60
2019-04-29T04:12:11.455Z,92.60
2019-04-29T04:14:39.923Z,92.70
2019-04-29T04:17:13.848Z,92.60
2019-04-29T04:19:42.402Z,92.60
2019-04-29T04:22:10.803Z,92.40
2019-04-29T04:24:39.217Z,92.60
2019-04-29T04:27:09.314Z,92.70
2019-04-29T04:29:37.727Z,93.20
2019-04-29T04:32:06.134Z,93.50
2019-04-29T04:34:34.524Z,93.60
2019-04-29T04:37:05.458Z,93.60
2019-04-29T04:39:35.541Z,93.50
2019-04-29T04:42:03.992Z,93.40
2019-04-29T04:44:34.039Z,93.40
2019-04-29T04:47:02.438Z,93.60
2019-04-29T04:49:30.871Z,93.60
2019-04-29T04:51:59.316Z,93.60
2019-04-29T04:54:31.328Z,93.70
2019-04-29T04:56:57.857Z,93.70
2019-04-29T04:59:26.263Z,93.60
2019-04-29T05:01:54.670Z,93.60
2019-04-29T05:04:23.068Z,93.60
2019-04-29T05:06:51.467Z,93.30
2019-04-29T05:09:19.890Z,93.40
2019-04-29T05:11:48.494Z,93.40
2019-04-29T05:14:17.018Z,93.30
2019-04-29T05:16:45.407Z,93.20
2019-04-29T05:19:13.851Z,93.00
2019-04-29T05:21:42.263Z,93.10
2019-04-29T05:24:10.686Z,92.90
2019-04-29T05:26:39.083Z,92.80
2019-04-29T05:29:07.518Z,92.60
2019-04-29T05:31:35.914Z,92.40
2019-04-29T05:34:04.623Z,92.20
2019-04-29T05:36:38.205Z,92.20
2019-04-29T05:39:08.067Z,92.10
2019-04-29T05:41:36.492Z,92.10
2019-04-29T05:44:06.634Z,91.90
2019-04-29T05:46:36.683Z,90.40
2019-04-29T05:49:07.373Z,85.70
2019-04-29T05:51:37.515Z,80.80
2019-04-29T05:54:07.578Z,75.40
2019-04-29T05:56:36.028Z,73.10
2019-04-29T05:59:08.359Z,69.10
2019-04-29T06:01:34.850Z,69.60
2019-04-29T06:04:03.291Z,66.70
2019-04-29T06:06:31.766Z,61.50
2019-04-29T06:09:00.159Z,63.20
2019-04-29T06:11:28.582Z,58.30
2019-04-29T06:13:57.023Z,63.20
2019-04-29T06:16:25.538Z,61.60
2019-04-29T06:18:59.777Z,59.90
2019-04-29T06:21:24.086Z,60.30
2019-04-29T06:23:54.606Z,56.80
2019-04-29T06:26:22.683Z,55.70
2019-04-29T06:28:51.085Z,56.60
2019-04-29T06:31:19.510Z,53.80
2019-04-29T06:33:47.901Z,53.90
2019-04-29T06:36:16.319Z,51.10
2019-04-29T06:38:44.745Z,49.30
2019-04-29T06:41:13.331Z,47.30
2019-04-29T06:43:41.727Z,47.60
2019-04-29T06:46:10.150Z,50.10
2019-04-29T06:48:38.573Z,49.90
2019-04-29T06:51:06.982Z,52.00
2019-04-29T06:53:35.392Z,48.50
2019-04-29T06:56:03.786Z,44.80
2019-04-29T06:58:32.523Z,43.70
2019-04-29T07:01:03.106Z,43.90
2019-04-29T07:03:31.754Z,43.00
2019-04-29T07:06:00.142Z,42.00
2019-04-29T07:08:28.558Z,41.30
2019-04-29T07:11:00.996Z,40.30
2019-04-29T07:13:27.096Z,42.20
2019-04-29T07:15:55.997Z,46.80
2019-04-29T07:18:24.390Z,46.50
2019-04-29T07:20:52.826Z,48.20
2019-04-29T07:23:21.218Z,47.80
2019-04-29T07:25:49.671Z,45.50
2019-04-29T07:28:18.632Z,43.50
2019-04-29T07:31:00.955Z,39.00
2019-04-29T07:33:22.770Z,37.00
2019-04-29T07:35:49.589Z,40.00
2019-04-29T07:38:18.740Z,37.90
2019-04-29T07:40:47.219Z,41.30
2019-04-29T07:43:15.655Z,47.90
2019-04-29T07:45:46.336Z,46.80
2019-04-29T07:48:14.730Z,41.50
2019-04-29T07:50:43.611Z,40.10
2019-04-29T07:53:12.012Z,40.70
2019-04-29T07:55:40.420Z,38.20
2019-04-29T07:58:08.894Z,37.90
2019-04-29T08:00:37.299Z,38.50
2019-04-29T08:03:07.576Z,35.90
2019-04-29T08:05:36.425Z,33.70
2019-04-29T08:08:07.598Z,33.80
2019-04-29T08:10:36.016Z,35.00
2019-04-29T08:13:04.584Z,34.90
2019-04-29T08:15:36.803Z,31.70
2019-04-29T08:18:06.714Z,32.50
2019-04-29T08:20:35.403Z,32.80
2019-04-29T08:23:04.159Z,34.90
2019-04-29T08:25:32.855Z,33.00
2019-04-29T08:28:01.291Z,34.70
2019-04-29T08:30:29.683Z,37.10
2019-04-29T08:32:58.094Z,40.80
2019-04-29T08:35:26.545Z,40.90
2019-04-29T08:37:54.983Z,39.20
2019-04-29T08:40:23.385Z,42.20
2019-04-29T08:42:53.426Z,41.00
2019-04-29T08:45:24.980Z,39.50
2019-04-29T08:47:53.752Z,42.00
2019-04-29T08:50:22.150Z,45.60
2019-04-29T08:52:50.626Z,46.10
2019-04-29T08:55:19.487Z,47.10
2019-04-29T08:57:48.030Z,48.80
2019-04-29T09:00:16.664Z,53.00
2019-04-29T09:02:47.169Z,50.90
2019-04-29T09:05:15.540Z,47.80
2019-04-29T09:07:43.946Z,48.70
2019-04-29T09:10:13.382Z,51.30
2019-04-29T09:12:41.820Z,53.50
2019-04-29T09:15:11.555Z,55.70
2019-04-29T09:17:39.963Z,57.90
2019-04-29T09:20:09.035Z,57.20
2019-04-29T09:22:39.072Z,58.40
2019-04-29T09:25:09.378Z,59.60
2019-04-29T09:27:40.784Z,59.00
2019-04-29T09:30:10.575Z,58.30
2019-04-29T09:32:39.939Z,57.60
2019-04-29T09:35:08.782Z,56.40
2019-04-29T09:37:37.186Z,57.00
2019-04-29T09:40:08.018Z,57.40
2019-04-29T09:42:38.085Z,58.50
2019-04-29T09:45:08.579Z,58.90
2019-04-29T09:47:37.054Z,60.60
2019-04-29T09:50:06.895Z,61.20
2019-04-29T09:52:35.375Z,60.80
2019-04-29T09:55:05.811Z,60.30
2019-04-29T09:57:34.323Z,60.30
2019-04-29T10:00:07.086Z,61.80
2019-04-29T10:02:37.046Z,61.70
2019-04-29T10:05:08.431Z,61.90
2019-04-29T10:07:37.007Z,61.60
2019-04-29T10:10:07.859Z,60.80
2019-04-29T10:12:36.343Z,61.60
2019-04-29T10:15:07.790Z,63.00
2019-04-29T10:17:37.852Z,62.80
2019-04-29T10:20:08.894Z,62.30
2019-04-29T10:22:37.308Z,61.20
2019-04-29T10:25:06.539Z,62.00
2019-04-29T10:27:35.151Z,61.00
2019-04-29T10:30:05.906Z,61.00
2019-04-29T10:32:37.810Z,61.50
2019-04-29T10:35:08.740Z,61.80
2019-04-29T10:37:36.807Z,61.60
2019-04-29T10:40:11.285Z,61.90
2019-04-29T10:42:40.578Z,61.80
2019-04-29T10:45:11.472Z,60.60
2019-04-29T10:47:41.534Z,60.90
2019-04-29T10:50:15.392Z,59.10
2019-04-29T10:52:43.546Z,59.50
2019-04-29T10:55:12.889Z,60.10
2019-04-29T10:57:45.021Z,60.50
2019-04-29T11:00:16.926Z,61.80
2019-04-29T11:02:44.759Z,63.20
2019-04-29T11:05:17.458Z,62.10
2019-04-29T11:07:47.595Z,62.00
2019-04-29T11:10:24.971Z,60.90
2019-04-29T11:12:47.915Z,61.20
2019-04-29T11:15:18.211Z,62.40
2019-04-29T11:17:46.618Z,61.40
2019-04-29T11:20:15.860Z,61.00
2019-04-29T11:22:46.875Z,61.50
2019-04-29T11:25:16.949Z,61.00
2019-04-29T11:27:47.012Z,59.40
2019-04-29T11:30:17.215Z,59.80
2019-04-29T11:32:47.246Z,59.90
2019-04-29T11:35:17.315Z,58.50
2019-04-29T11:37:45.791Z,58.40
2019-04-29T11:40:15.974Z,57.80
2019-04-29T11:42:44.406Z,59.10
2019-04-29T11:45:13.740Z,59.00
2019-04-29T11:47:42.266Z,59.60
2019-04-29T11:50:13.670Z,59.10
2019-04-29T11:52:42.134Z,59.30
2019-04-29T11:55:14.021Z,60.10
2019-04-29T11:57:42.958Z,60.10
2019-04-29T12:00:15.029Z,59.00
2019-04-29T12:02:46.123Z,60.30
2019-04-29T12:05:16.388Z,62.10
2019-04-29T12:07:44.983Z,61.80
2019-04-29T12:10:13.406Z,60.90
2019-04-29T12:12:43.630Z,60.50
2019-04-29T12:15:15.371Z,59.40
2019-04-29T12:17:45.579Z,61.50
2019-04-29T12:20:15.610Z,61.70
2019-04-29T12:22:48.554Z,62.90
2019-04-29T12:25:14.329Z,63.00
2019-04-29T12:27:42.794Z,62.70
2019-04-29T12:30:13.066Z,63.30
2019-04-29T12:32:43.666Z,64.10
2019-04-29T12:35:16.780Z,64.50
2019-04-29T12:37:45.638Z,64.60
2019-04-29T12:40:16.255Z,64.70
2019-04-29T12:42:46.385Z,63.20
2019-04-29T12:45:19.609Z,62.30
2019-04-29T12:47:47.003Z,62.80
2019-04-29T12:50:17.593Z,61.60
2019-04-29T12:52:45.736Z,61.80
2019-04-29T12:55:20.400Z,61.60
2019-04-29T12:57:46.021Z,60.80
2019-04-29T13:00:16.249Z,63.50
2019-04-29T13:02:46.290Z,64.40
2019-04-29T13:05:17.370Z,63.90
2019-04-29T13:07:47.421Z,65.00
2019-04-29T13:10:17.797Z,65.20
2019-04-29T13:12:46.251Z,64.80
2019-04-29T13:15:17.198Z,64.60
2019-04-29T13:17:47.255Z,63.80
2019-04-29T13:20:15.790Z,64.80
2019-04-29T13:22:44.862Z,63.40
2019-04-29T13:25:15.548Z,63.80
2019-04-29T13:27:43.962Z,62.90
2019-04-29T13:30:16.258Z,63.00
2019-04-29T13:32:43.190Z,62.70
2019-04-29T13:35:12.730Z,62.60
2019-04-29T13:37:41.326Z,63.00
2019-04-29T13:40:10.505Z,63.50
2019-04-29T13:42:39.083Z,64.00
2019-04-29T13:45:13.499Z,63.80
2019-04-29T13:47:41.784Z,63.80
2019-04-29T13:50:18.829Z,63.40
2019-04-29T13:52:42.302Z,63.00
2019-04-29T13:55:17.742Z,62.60
2019-04-29T13:57:45.110Z,62.80
2019-04-29T14:00:13.827Z,64.90
2019-04-29T14:02:58.143Z,65.60
2019-04-29T14:05:15.907Z,66.10
2019-04-29T14:07:44.340Z,66.40
2019-04-29T14:10:14.932Z,66.30
2019-04-29T14:12:48.230Z,66.30
2019-04-29T14:15:14.214Z,66.00
2019-04-29T14:17:42.844Z,65.30
2019-04-29T14:20:15.797Z,66.40
2019-04-29T14:22:41.860Z,66.10
2019-04-29T14:25:13.322Z,66.00
2019-04-29T14:27:40.644Z,65.80
2019-04-29T14:30:14.102Z,66.80
2019-04-29T14:32:46.858Z,67.10
2019-04-29T14:35:14.520Z,66.50
2019-04-29T14:37:54.387Z,65.70
2019-04-29T14:40:13.308Z,66.20
2019-04-29T14:42:56.834Z,65.90
2019-04-29T14:45:15.324Z,66.20
2019-04-29T14:47:45.389Z,65.70
2019-04-29T14:50:16.549Z,64.90
2019-04-29T14:52:49.238Z,65.50
2019-04-29T14:55:15.185Z,64.80
2019-04-29T14:57:43.654Z,63.90
2019-04-29T15:00:13.905Z,65.00
2019-04-29T15:02:42.518Z,65.00
2019-04-29T15:05:13.926Z,65.40
2019-04-29T15:07:41.288Z,64.90
2019-04-29T15:10:09.938Z,65.70
2019-04-29T15:12:51.155Z,65.70
2019-04-29T15:15:12.150Z,64.70
2019-04-29T15:17:44.792Z,64.40
2019-04-29T15:20:14.238Z,63.10
2019-04-29T15:22:42.922Z,64.40
2019-04-29T15:25:11.895Z,63.60
2019-04-29T15:27:40.303Z,63.30
2019-04-29T15:30:09.182Z,65.50
2019-04-29T15:32:37.614Z,66.40
2019-04-29T15:35:06.977Z,66.60
2019-04-29T15:37:35.362Z,66.30
2019-04-29T15:40:04.952Z,67.90
2019-04-29T15:42:33.538Z,68.70
2019-04-29T15:45:01.980Z,68.90
2019-04-29T15:47:31.513Z,69.20
2019-04-29T15:50:00.617Z,69.00
2019-04-29T15:52:30.310Z,68.70
2019-04-29T15:54:58.722Z,69.40
2019-04-29T15:57:27.155Z,69.40
2019-04-29T16:00:00.010Z,70.20
2019-04-29T16:02:25.899Z,69.90
2019-04-29T16:04:56.010Z,70.30
2019-04-29T16:07:26.055Z,70.10
2019-04-29T16:09:56.095Z,69.90
2019-04-29T16:12:26.146Z,70.10
2019-04-29T16:14:54.567Z,70.90
2019-04-29T16:17:22.998Z,69.80
2019-04-29T16:19:51.403Z,69.30
2019-04-29T16:22:20.433Z,70.30
2019-04-29T16:24:50.047Z,69.50
2019-04-29T16:27:18.477Z,69.40
2019-04-29T16:29:51.734Z,69.20
2019-04-29T16:32:18.647Z,68.10
2019-04-29T16:34:47.122Z,68.90
2019-04-29T16:37:19.199Z,69.10
2019-04-29T16:39:45.862Z,69.00
2019-04-29T16:42:15.997Z,69.40
2019-04-29T16:44:44.866Z,70.80
2019-04-29T16:47:15.601Z,71.70
2019-04-29T16:49:44.274Z,72.30
2019-04-29T16:52:12.735Z,71.00
2019-04-29T16:54:42.829Z,71.50
2019-04-29T16:57:15.015Z,72.00
2019-04-29T16:59:43.543Z,72.30
2019-04-29T17:02:18.995Z,72.00
2019-04-29T17:04:42.130Z,72.10
2019-04-29T17:07:16.349Z,72.50
2019-04-29T17:12:23.446Z,73.30
2019-04-29T17:15:04.108Z,73.30
2019-04-29T17:17:28.939Z,73.20
2019-04-29T17:19:53.771Z,74.20
2019-04-29T17:22:26.008Z,73.50
2019-04-29T17:24:52.627Z,73.10
2019-04-29T17:27:22.775Z,73.40
2019-04-29T17:29:55.457Z,74.10
2019-04-29T17:32:25.129Z,74.20
2019-04-29T17:34:59.492Z,74.10
2019-04-29T17:37:24.518Z,74.50
2019-04-29T17:39:52.931Z,74.80
2019-04-29T17:42:21.439Z,75.00
2019-04-29T17:44:49.864Z,75.30
2019-04-29T17:47:19.952Z,75.90
2019-04-29T17:49:50.373Z,75.70
2019-04-29T17:52:20.767Z,75.10
2019-04-29T17:54:50.824Z,75.60
2019-04-29T17:57:28.209Z,76.00
2019-04-29T17:59:52.734Z,76.70
2019-04-29T18:02:25.542Z,76.90
2019-04-29T18:04:57.330Z,77.00
2019-04-29T18:07:27.525Z,77.30
2019-04-29T18:09:57.587Z,77.70
2019-04-29T18:12:25.998Z,77.60
2019-04-29T18:14:55.100Z,77.70
2019-04-29T18:17:30.435Z,78.00
2019-04-29T18:19:57.022Z,77.70
2019-04-29T18:22:27.079Z,77.90
2019-04-29T18:24:57.119Z,77.30
2019-04-29T18:27:27.239Z,77.90
2019-04-29T18:29:55.631Z,78.20
2019-04-29T18:32:35.020Z,78.10
2019-04-29T18:34:55.847Z,78.50
2019-04-29T18:37:24.972Z,78.90
2019-04-29T18:39:53.550Z,79.20
2019-04-29T18:42:22.049Z,79.30
2019-04-29T18:44:59.318Z,79.80
2019-04-29T18:47:22.976Z,80.00
2019-04-29T18:49:50.765Z,79.90
2019-04-29T18:52:25.935Z,80.10
2019-04-29T18:54:49.322Z,80.00
2019-04-29T18:57:27.893Z,80.20
2019-04-29T18:59:47.858Z,79.90
2019-04-29T19:02:16.261Z,79.90
2019-04-29T19:04:52.964Z,79.60
2019-04-29T19:07:16.479Z,79.40
2019-04-29T19:09:45.281Z,79.90
2019-04-29T19:12:15.035Z,79.80
2019-04-29T19:14:47.508Z,80.20
2019-04-29T19:17:13.570Z,80.20
2019-04-29T19:19:42.006Z,80.50
2019-04-29T19:22:10.402Z,80.70
2019-04-29T19:24:38.889Z,81.20
2019-04-29T19:27:09.839Z,81.40
2019-04-29T19:29:38.864Z,81.00
2019-04-29T19:32:07.744Z,81.70
2019-04-29T19:34:42.937Z,81.60
2019-04-29T19:37:15.379Z,81.50
2019-04-29T19:39:44.921Z,81.80
2019-04-29T19:42:13.490Z,81.60
2019-04-29T19:44:41.898Z,81.30
2019-04-29T19:47:15.227Z,81.50
2019-04-29T19:49:44.756Z,81.70
2019-04-29T19:52:12.175Z,81.60
2019-04-29T19:54:40.604Z,81.90
2019-04-29T19:57:09.047Z,81.90
2019-04-29T19:59:37.902Z,81.70
2019-04-29T20:02:10.064Z,81.50
2019-04-29T20:04:38.631Z,81.60
2019-04-29T20:07:10.264Z,81.80
2019-04-29T20:09:38.947Z,81.80
2019-04-29T20:12:12.872Z,81.80
2019-04-29T20:14:38.312Z,82.10
2019-04-29T20:17:16.576Z,81.90
2019-04-29T20:19:46.107Z,82.10
2019-04-29T20:22:15.966Z,82.30
2019-04-29T20:24:49.582Z,82.10
2019-04-29T20:27:14.840Z,82.10
2019-04-29T20:29:43.322Z,82.20
2019-04-29T20:32:11.886Z,82.30
2019-04-29T20:34:40.353Z,82.20
2019-04-29T20:37:10.756Z,82.40
2019-04-29T20:39:39.317Z,82.50
2019-04-29T20:42:10.238Z,82.60
2019-04-29T20:44:44.732Z,82.20
2019-04-29T20:47:22.977Z,82.20
2019-04-29T20:49:47.575Z,82.40
2019-04-29T20:52:21.642Z,82.40
2019-04-29T20:54:53.285Z,82.50
2019-04-29T20:57:21.522Z,82.50
2019-04-29T20:59:50.410Z,82.70
2019-04-29T21:02:30.338Z,82.60
2019-04-29T21:04:48.619Z,82.90
2019-04-29T21:07:23.662Z,82.90
2019-04-29T21:09:47.436Z,82.90
2019-04-29T21:12:20.407Z,83.30
2019-04-29T21:14:49.419Z,83.60
2019-04-29T21:17:28.518Z,83.70
2019-04-29T21:19:47.972Z,83.20
2019-04-29T21:22:22.020Z,83.70
2019-04-29T21:24:49.402Z,83.70
2019-04-29T21:27:22.191Z,83.50
2019-04-29T21:29:49.741Z,83.90
2019-04-29T21:32:17.370Z,83.60
2019-04-29T21:34:47.416Z,83.20
2019-04-29T21:37:17.543Z,83.40
2019-04-29T21:39:47.679Z,83.30
2019-04-29T21:42:17.745Z,83.10
2019-04-29T21:44:46.169Z,83.10
2019-04-29T21:47:16.424Z,83.70
2019-04-29T21:49:45.744Z,83.90
2019-04-29T21:52:15.379Z,84.00
2019-04-29T21:54:44.603Z,83.90
2019-04-29T21:57:23.458Z,84.00
2019-04-29T21:59:48.621Z,84.00
2019-04-29T22:02:17.830Z,83.90
2019-04-29T22:04:47.045Z,83.70
2019-04-29T22:07:15.766Z,83.80
2019-04-29T22:09:47.246Z,83.90
2019-04-29T22:12:20.213Z,83.60
2019-04-29T22:14:45.009Z,83.70
2019-04-29T22:17:15.830Z,83.60
2019-04-29T22:19:45.136Z,83.60
2019-04-29T22:22:13.614Z,83.50
2019-04-29T22:24:42.103Z,83.90
2019-04-29T22:27:16.313Z,83.90
2019-04-29T22:29:45.426Z,84.20
2019-04-29T22:32:19.363Z,83.70
2019-04-29T22:34:49.632Z,84.30
2019-04-29T22:37:16.154Z,84.20
2019-04-29T22:39:44.574Z,84.30
2019-04-29T22:42:14.681Z,84.40
2019-04-29T22:44:43.114Z,84.60
2019-04-29T22:47:11.665Z,84.40
2019-04-29T22:49:40.122Z,84.50
2019-04-29T22:52:09.033Z,84.30
2019-04-29T22:54:37.904Z,84.30
2019-04-29T22:57:06.508Z,84.90
2019-04-29T22:59:35.389Z,84.40
2019-04-29T23:02:05.705Z,84.20
2019-04-29T23:04:35.093Z,84.00
2019-04-29T23:09:48.150Z,84.40
2019-04-29T23:12:18.494Z,84.00
2019-04-29T23:14:48.831Z,83.60
2019-04-29T23:17:17.229Z,83.50
2019-04-29T23:19:50.692Z,83.50
2019-04-29T23:22:22.164Z,83.30
2019-04-29T23:24:51.268Z,83.50
2019-04-29T23:30:05.251Z,83.40
2019-04-29T23:32:35.212Z,83.50
2019-04-29T23:35:09.747Z,83.30
2019-04-29T23:37:36.213Z,83.00
2019-04-29T23:40:06.259Z,82.80
2019-04-29T23:42:34.693Z,83.10
2019-04-29T23:45:05.184Z,82.90
2019-04-29T23:47:35.620Z,82.90
2019-04-29T23:50:04.779Z,83.20
2019-04-29T23:52:33.203Z,83.30
2019-04-29T23:55:01.639Z,83.20
2019-04-29T23:57:31.685Z,83.50
